createdAt,value
2018-07-20T00:02:00.245Z,8.90
2018-07-20T00:04:29.498Z,9.07
2018-07-20T00:06:58.516Z,8.90
2018-07-20T00:09:27.478Z,9.03
2018-07-20T00:11:56.698Z,9.13
2018-07-20T00:14:25.758Z,8.63
2018-07-20T00:16:54.875Z,10.13
2018-07-20T00:19:24.109Z,8.40
2018-07-20T00:21:53.270Z,10.07
2018-07-20T00:24:22.521Z,14.03
2018-07-20T00:26:51.618Z,10.03
2018-07-20T00:29:20.654Z,9.23
2018-07-20T00:31:49.874Z,9.27
2018-07-20T00:34:19.209Z,10.83
2018-07-20T00:36:48.610Z,11.30
2018-07-20T00:39:17.749Z,10.93
2018-07-20T00:41:46.919Z,12.03
2018-07-20T00:44:16.040Z,12.03
2018-07-20T00:46:45.430Z,16.10
2018-07-20T00:49:14.535Z,11.20
2018-07-20T00:51:43.760Z,14.43
2018-07-20T00:54:13.360Z,11.77
2018-07-20T00:56:42.542Z,11.70
2018-07-20T00:59:11.838Z,12.17
2018-07-20T01:01:40.701Z,11.27
2018-07-20T01:04:09.810Z,11.47
2018-07-20T01:06:38.689Z,10.43
2018-07-20T01:09:09.471Z,10.83
2018-07-20T01:11:38.391Z,11.37
2018-07-20T01:14:07.433Z,10.93
2018-07-20T01:16:36.667Z,12.87
2018-07-20T01:19:05.824Z,12.17
2018-07-20T01:21:34.676Z,10.93
2018-07-20T01:24:03.739Z,11.80
2018-07-20T01:26:32.654Z,12.27
2018-07-20T01:29:01.594Z,11.73
2018-07-20T01:31:30.680Z,11.50
2018-07-20T01:33:59.734Z,14.77
2018-07-20T01:36:28.564Z,11.93
2018-07-20T01:38:57.453Z,11.47
2018-07-20T01:41:26.428Z,11.77
2018-07-20T01:43:55.551Z,13.73
2018-07-20T01:46:24.559Z,13.23
2018-07-20T01:48:53.466Z,11.67
2018-07-20T01:51:22.333Z,14.23
2018-07-20T01:53:51.234Z,11.93
2018-07-20T01:56:20.149Z,11.57
2018-07-20T01:58:49.048Z,14.67
2018-07-20T02:01:18.923Z,13.97
2018-07-20T02:03:47.834Z,12.10
2018-07-20T02:06:16.733Z,12.27
2018-07-20T02:08:45.672Z,13.60
2018-07-20T02:11:14.609Z,14.67
2018-07-20T02:13:43.663Z,12.10
2018-07-20T02:16:12.552Z,12.77
2018-07-20T02:18:41.467Z,11.90
2018-07-20T02:21:10.504Z,13.27
2018-07-20T02:23:39.618Z,13.13
2018-07-20T02:26:08.503Z,16.90
2018-07-20T02:28:37.599Z,14.70
2018-07-20T02:31:06.923Z,13.17
2018-07-20T02:33:35.993Z,13.37
2018-07-20T02:36:04.478Z,15.50
2018-07-20T02:38:33.374Z,14.83
2018-07-20T02:41:02.244Z,16.00
2018-07-20T02:43:31.365Z,14.20
2018-07-20T02:46:00.457Z,13.10
2018-07-20T02:48:29.527Z,12.83
2018-07-20T02:50:58.423Z,14.80
2018-07-20T02:53:27.501Z,12.50
2018-07-20T02:55:56.608Z,13.77
2018-07-20T02:58:25.683Z,14.03
2018-07-20T03:00:54.821Z,14.33
2018-07-20T03:03:23.687Z,12.67
2018-07-20T03:05:52.792Z,13.37
2018-07-20T03:08:21.834Z,13.30
2018-07-20T03:10:50.768Z,13.40
2018-07-20T03:13:19.646Z,13.43
2018-07-20T03:15:54.776Z,15.20
2018-07-20T03:18:23.672Z,16.53
2018-07-20T03:20:52.811Z,15.27
2018-07-20T03:23:21.643Z,14.87
2018-07-20T03:25:50.523Z,15.83
2018-07-20T03:28:19.524Z,13.83
2018-07-20T03:30:48.394Z,14.17
2018-07-20T03:33:17.338Z,14.00
2018-07-20T03:35:46.500Z,13.43
2018-07-20T03:38:15.409Z,15.17
2018-07-20T03:40:45.219Z,14.10
2018-07-20T03:43:14.320Z,14.73
2018-07-20T03:45:43.189Z,14.27
2018-07-20T03:48:12.283Z,13.53
2018-07-20T03:50:41.168Z,18.67
2018-07-20T03:53:10.042Z,14.37
2018-07-20T03:55:38.984Z,13.43
2018-07-20T03:58:08.049Z,13.47
2018-07-20T04:00:36.938Z,13.57
2018-07-20T04:03:05.851Z,13.50
2018-07-20T04:05:34.768Z,14.70
2018-07-20T04:08:03.632Z,15.73
2018-07-20T04:10:32.532Z,16.00
2018-07-20T04:13:01.368Z,15.90
2018-07-20T04:15:30.239Z,16.50
2018-07-20T04:17:59.181Z,15.37
2018-07-20T04:20:28.074Z,15.37
2018-07-20T04:22:56.945Z,15.80
2018-07-20T04:25:25.897Z,15.33
2018-07-20T04:27:54.890Z,14.47
2018-07-20T04:30:23.957Z,15.17
2018-07-20T04:32:52.970Z,14.93
2018-07-20T04:35:21.972Z,19.67
2018-07-20T04:37:50.919Z,15.43
2018-07-20T04:40:20.239Z,14.60
2018-07-20T04:42:49.233Z,14.67
2018-07-20T04:45:18.413Z,13.63
2018-07-20T04:47:47.602Z,13.77
2018-07-20T04:50:16.807Z,14.40
2018-07-20T04:52:48.984Z,13.60
2018-07-20T04:55:18.005Z,13.27
2018-07-20T04:57:47.128Z,13.70
2018-07-20T05:00:16.231Z,15.00
2018-07-20T05:02:45.449Z,13.47
2018-07-20T05:05:14.675Z,14.33
2018-07-20T05:07:43.690Z,13.70
2018-07-20T05:10:12.821Z,14.67
2018-07-20T05:12:42.130Z,13.53
2018-07-20T05:15:11.710Z,15.00
2018-07-20T05:17:40.772Z,14.33
2018-07-20T05:20:09.891Z,14.33
2018-07-20T05:22:39.094Z,13.70
2018-07-20T05:25:08.222Z,15.90
2018-07-20T05:27:37.512Z,15.57
2018-07-20T05:30:06.867Z,14.77
2018-07-20T05:32:35.967Z,13.50
2018-07-20T05:35:05.188Z,14.80
2018-07-20T05:37:34.268Z,13.53
2018-07-20T05:40:03.365Z,14.20
2018-07-20T05:42:32.491Z,16.07
2018-07-20T05:45:01.878Z,14.53
2018-07-20T05:47:31.156Z,14.50
2018-07-20T05:50:00.389Z,15.50
2018-07-20T05:52:29.474Z,14.90
2018-07-20T05:54:58.480Z,13.70
2018-07-20T05:57:27.694Z,14.73
2018-07-20T05:59:57.000Z,13.27
2018-07-20T06:02:26.111Z,13.43
2018-07-20T06:04:54.734Z,13.67
2018-07-20T06:07:23.976Z,14.60
2018-07-20T06:09:53.152Z,13.97
2018-07-20T06:12:22.330Z,13.93
2018-07-20T06:14:51.392Z,14.27
2018-07-20T06:17:20.663Z,14.50
2018-07-20T06:19:50.514Z,14.97
2018-07-20T06:22:19.751Z,14.80
2018-07-20T06:24:48.850Z,13.90
2018-07-20T06:27:20.744Z,15.00
2018-07-20T06:29:49.395Z,14.73
2018-07-20T06:32:18.688Z,15.63
2018-07-20T06:34:48.035Z,14.47
2018-07-20T06:37:17.372Z,14.23
2018-07-20T06:39:46.669Z,14.87
2018-07-20T06:42:16.590Z,14.30
2018-07-20T06:44:45.712Z,15.30
2018-07-20T06:47:15.859Z,14.97
2018-07-20T06:49:45.035Z,14.73
2018-07-20T06:52:14.241Z,15.03
2018-07-20T06:54:43.410Z,13.87
2018-07-20T06:57:12.583Z,14.37
2018-07-20T06:59:41.975Z,15.03
2018-07-20T07:02:11.653Z,13.70
2018-07-20T07:04:40.794Z,14.13
2018-07-20T07:07:10.216Z,13.23
2018-07-20T07:09:39.421Z,13.60
2018-07-20T07:12:08.920Z,13.30
2018-07-20T07:14:38.253Z,14.10
2018-07-20T07:17:07.780Z,13.37
2018-07-20T07:19:37.014Z,12.80
2018-07-20T07:22:07.608Z,13.83
2018-07-20T07:24:37.001Z,14.33
2018-07-20T07:27:06.157Z,12.50
2018-07-20T07:29:35.411Z,14.50
2018-07-20T07:32:04.605Z,13.60
2018-07-20T07:34:33.723Z,13.23
2018-07-20T07:37:03.189Z,12.53
2018-07-20T07:39:32.343Z,12.73
2018-07-20T07:42:01.539Z,11.63
2018-07-20T07:44:30.667Z,12.93
2018-07-20T07:46:59.720Z,15.07
2018-07-20T07:49:29.608Z,12.73
2018-07-20T07:51:59.771Z,11.40
2018-07-20T07:54:28.889Z,11.57
2018-07-20T07:56:58.526Z,12.53
2018-07-20T07:59:27.687Z,9.53
2018-07-20T08:01:57.531Z,12.43
2018-07-20T08:04:26.658Z,11.20
2018-07-20T08:06:56.041Z,11.90
2018-07-20T08:09:25.455Z,8.20
2018-07-20T08:11:54.745Z,12.43
2018-07-20T08:14:23.829Z,11.57
2018-07-20T08:16:53.166Z,10.50
2018-07-20T08:19:22.629Z,9.70
2018-07-20T08:21:52.495Z,8.70
2018-07-20T08:24:21.997Z,12.03
2018-07-20T08:26:51.201Z,10.97
2018-07-20T08:29:20.619Z,11.53
2018-07-20T08:31:49.742Z,13.87
2018-07-20T08:34:19.338Z,11.93
2018-07-20T08:36:49.509Z,11.10
2018-07-20T08:39:18.996Z,12.13
2018-07-20T08:41:48.416Z,11.30
2018-07-20T08:44:17.717Z,9.10
2018-07-20T08:46:47.065Z,7.97
2018-07-20T08:49:16.179Z,10.90
2018-07-20T08:51:45.512Z,8.57
2018-07-20T08:54:14.913Z,8.17
2018-07-20T08:56:44.197Z,9.97
2018-07-20T08:59:13.555Z,10.30
2018-07-20T09:01:43.002Z,10.30
2018-07-20T09:04:12.722Z,9.77
2018-07-20T09:06:41.944Z,9.30
2018-07-20T09:09:11.402Z,9.93
2018-07-20T09:11:40.535Z,11.20
2018-07-20T09:14:09.519Z,8.77
2018-07-20T09:16:38.806Z,8.53
2018-07-20T09:19:08.075Z,11.90
2018-07-20T09:21:37.152Z,11.37
2018-07-20T09:24:06.386Z,10.57
2018-07-20T09:26:35.555Z,8.50
2018-07-20T09:29:04.543Z,8.20
2018-07-20T09:31:34.019Z,10.93
2018-07-20T09:34:03.616Z,8.73
2018-07-20T09:36:32.931Z,8.73
2018-07-20T09:39:02.345Z,9.00
2018-07-20T09:41:31.441Z,9.60
2018-07-20T09:44:00.673Z,8.33
2018-07-20T09:46:30.154Z,9.30
2018-07-20T09:48:59.700Z,9.10
2018-07-20T09:51:28.810Z,8.80
2018-07-20T09:53:58.424Z,9.17
2018-07-20T09:56:27.824Z,9.23
2018-07-20T09:58:57.386Z,8.20
2018-07-20T10:01:26.892Z,6.33
2018-07-20T10:03:56.288Z,8.37
2018-07-20T10:06:25.714Z,9.40
2018-07-20T10:08:55.202Z,8.33
2018-07-20T10:11:24.831Z,10.73
2018-07-20T10:13:54.315Z,6.67
2018-07-20T10:16:23.658Z,7.25
2018-07-20T10:18:53.308Z,8.08
2018-07-20T10:21:22.533Z,8.25
2018-07-20T10:23:51.985Z,8.13
2018-07-20T10:26:21.209Z,8.65
2018-07-20T10:28:50.921Z,9.83
2018-07-20T10:31:20.259Z,9.03
2018-07-20T10:33:49.530Z,10.53
2018-07-20T10:36:19.206Z,8.13
2018-07-20T10:38:48.451Z,8.23
2018-07-20T10:41:17.612Z,10.40
2018-07-20T10:43:47.214Z,9.28
2018-07-20T10:46:16.320Z,7.78
2018-07-20T10:48:46.865Z,9.75
2018-07-20T10:51:16.182Z,11.73
2018-07-20T10:53:45.643Z,7.90
2018-07-20T10:56:15.899Z,7.83
2018-07-20T10:58:45.442Z,6.78
2018-07-20T11:01:14.818Z,8.00
2018-07-20T11:03:44.361Z,6.78
2018-07-20T11:06:13.608Z,7.22
2018-07-20T11:08:42.987Z,6.85
2018-07-20T11:11:12.227Z,6.97
2018-07-20T11:13:42.044Z,7.28
2018-07-20T11:16:11.428Z,7.55
2018-07-20T11:18:40.572Z,7.25
2018-07-20T11:21:09.850Z,7.30
2018-07-20T11:23:39.248Z,8.18
2018-07-20T11:26:08.800Z,7.58
2018-07-20T11:28:38.351Z,9.50
2018-07-20T11:31:07.756Z,7.20
2018-07-20T11:33:37.283Z,7.53
2018-07-20T11:36:06.853Z,7.35
2018-07-20T11:38:36.454Z,7.62
2018-07-20T11:41:05.932Z,7.05
2018-07-20T11:43:35.499Z,5.85
2018-07-20T11:46:05.297Z,8.23
2018-07-20T11:48:34.845Z,6.83
2018-07-20T11:51:04.330Z,7.72
2018-07-20T11:53:33.561Z,7.12
2018-07-20T11:56:03.049Z,6.97
2018-07-20T11:58:32.491Z,7.97
2018-07-20T12:01:01.801Z,7.20
2018-07-20T12:03:31.186Z,7.90
2018-07-20T12:06:00.633Z,7.22
2018-07-20T12:08:30.328Z,7.42
2018-07-20T12:11:00.046Z,8.13
2018-07-20T12:13:29.534Z,7.50
2018-07-20T12:15:59.658Z,6.72
2018-07-20T12:18:29.326Z,6.70
2018-07-20T12:20:58.612Z,6.75
2018-07-20T12:23:27.812Z,5.90
2018-07-20T12:25:57.079Z,6.60
2018-07-20T12:28:26.623Z,6.58
2018-07-20T12:30:56.816Z,7.33
2018-07-20T12:33:26.120Z,6.70
2018-07-20T12:35:55.481Z,7.53
2018-07-20T12:38:25.161Z,7.37
2018-07-20T12:40:54.509Z,7.95
2018-07-20T12:43:23.925Z,8.05
2018-07-20T12:45:53.231Z,7.85
2018-07-20T12:48:22.719Z,7.85
2018-07-20T12:50:51.921Z,7.08
2018-07-20T12:53:21.362Z,7.22
2018-07-20T12:55:50.916Z,7.22
2018-07-20T12:58:20.440Z,7.80
2018-07-20T13:00:50.160Z,7.05
2018-07-20T13:03:19.549Z,7.70
2018-07-20T13:05:49.128Z,7.30
2018-07-20T13:08:18.691Z,6.95
2018-07-20T13:10:48.040Z,9.53
2018-07-20T13:13:17.494Z,7.50
2018-07-20T13:15:46.956Z,8.35
2018-07-20T13:18:15.822Z,8.50
2018-07-20T13:20:45.155Z,13.93
2018-07-20T13:23:14.240Z,7.80
2018-07-20T13:25:43.625Z,7.22
2018-07-20T13:28:12.967Z,7.90
2018-07-20T13:30:42.687Z,7.15
2018-07-20T13:33:11.943Z,8.45
2018-07-20T13:35:41.591Z,7.95
2018-07-20T13:38:11.052Z,8.10
2018-07-20T13:40:40.785Z,10.08
2018-07-20T13:43:10.085Z,8.53
2018-07-20T13:45:39.398Z,11.22
2018-07-20T13:48:08.940Z,7.62
2018-07-20T13:50:38.408Z,8.90
2018-07-20T13:53:07.823Z,7.62
2018-07-20T13:55:37.063Z,8.60
2018-07-20T13:58:06.423Z,8.33
2018-07-20T14:00:35.731Z,7.60
2018-07-20T14:03:05.219Z,7.20
2018-07-20T14:05:34.618Z,8.08
2018-07-20T14:08:04.125Z,7.83
2018-07-20T14:10:33.410Z,7.87
2018-07-20T14:13:02.911Z,8.28
2018-07-20T14:15:32.123Z,7.97
2018-07-20T14:18:01.455Z,8.20
2018-07-20T14:20:30.158Z,8.05
2018-07-20T14:23:00.117Z,8.75
2018-07-20T14:25:29.498Z,9.55
2018-07-20T14:27:58.796Z,8.63
2018-07-20T14:30:28.275Z,8.60
2018-07-20T14:32:57.498Z,11.35
2018-07-20T14:35:28.028Z,7.53
2018-07-20T14:37:57.076Z,8.00
2018-07-20T14:40:26.446Z,7.70
2018-07-20T14:42:55.730Z,7.70
2018-07-20T14:45:25.068Z,8.13
2018-07-20T14:47:54.413Z,7.65
2018-07-20T14:50:23.648Z,7.53
2018-07-20T14:52:53.240Z,7.20
2018-07-20T14:55:22.483Z,8.03
2018-07-20T14:57:51.754Z,8.23
2018-07-20T15:00:21.151Z,7.78
2018-07-20T15:02:50.663Z,8.65
2018-07-20T15:05:20.030Z,8.08
2018-07-20T15:07:49.088Z,7.97
2018-07-20T15:10:18.160Z,8.98
2018-07-20T15:12:47.340Z,9.20
2018-07-20T15:15:17.254Z,8.00
2018-07-20T15:17:46.551Z,8.43
2018-07-20T15:20:15.992Z,13.13
2018-07-20T15:22:45.246Z,8.38
2018-07-20T15:25:14.316Z,8.18
2018-07-20T15:27:43.308Z,9.78
2018-07-20T15:30:12.733Z,8.05
2018-07-20T15:32:41.870Z,9.15
2018-07-20T15:35:10.985Z,7.62
2018-07-20T15:37:40.088Z,8.40
2018-07-20T15:40:09.136Z,9.43
2018-07-20T15:42:38.535Z,9.03
2018-07-20T15:45:07.621Z,9.93
2018-07-20T15:47:36.651Z,8.65
2018-07-20T15:50:06.266Z,14.10
2018-07-20T15:55:04.730Z,8.58
2018-07-20T15:57:33.863Z,9.08
2018-07-20T16:00:03.310Z,9.38
2018-07-20T16:02:32.510Z,9.80
2018-07-20T16:05:01.811Z,13.15
2018-07-20T16:07:31.390Z,8.85
2018-07-20T16:10:00.533Z,10.28
2018-07-20T16:12:29.633Z,10.13
2018-07-20T16:14:59.041Z,11.83
2018-07-20T16:17:28.142Z,11.12
2018-07-20T16:19:57.296Z,11.20
2018-07-20T16:22:26.432Z,10.53
2018-07-20T16:24:55.505Z,10.30
2018-07-20T16:27:24.683Z,10.50
2018-07-20T16:29:54.297Z,10.00
2018-07-20T16:32:23.395Z,9.78
2018-07-20T16:34:52.489Z,9.88
2018-07-20T16:37:21.536Z,9.68
2018-07-20T16:39:50.811Z,10.23
2018-07-20T16:42:20.031Z,9.85
2018-07-20T16:44:49.662Z,13.35
2018-07-20T16:47:18.522Z,14.25
2018-07-20T16:49:47.768Z,11.40
2018-07-20T16:52:16.970Z,10.95
2018-07-20T16:54:46.020Z,10.23
2018-07-20T16:57:15.218Z,10.18
2018-07-20T16:59:44.312Z,9.63
2018-07-20T17:02:13.622Z,12.10
2018-07-20T17:04:42.936Z,12.18
2018-07-20T17:07:12.161Z,12.90
2018-07-20T17:09:41.549Z,10.72
2018-07-20T17:12:10.121Z,12.30
2018-07-20T17:14:39.089Z,11.63
2018-07-20T17:17:08.163Z,13.00
2018-07-20T17:19:37.275Z,13.10
2018-07-20T17:22:06.521Z,12.93
2018-07-20T17:24:35.636Z,14.63
2018-07-20T17:27:05.215Z,18.97
2018-07-20T17:29:34.696Z,14.67
2018-07-20T17:32:04.317Z,15.60
2018-07-20T17:34:33.826Z,14.67
2018-07-20T17:37:03.650Z,12.47
2018-07-20T17:39:32.758Z,11.97
2018-07-20T17:42:01.850Z,13.17
2018-07-20T17:44:31.083Z,10.53
2018-07-20T17:47:00.429Z,11.73
2018-07-20T17:49:30.033Z,11.37
2018-07-20T17:51:59.122Z,11.00
2018-07-20T17:54:28.237Z,11.60
2018-07-20T17:56:57.243Z,10.27
2018-07-20T17:59:26.320Z,9.87
2018-07-20T18:01:55.327Z,10.40
2018-07-20T18:04:24.322Z,11.73
2018-07-20T18:06:53.350Z,8.77
2018-07-20T18:09:22.749Z,11.50
2018-07-20T18:11:51.758Z,11.80
2018-07-20T18:14:20.879Z,9.10
2018-07-20T18:16:49.536Z,9.77
2018-07-20T18:19:18.616Z,9.43
2018-07-20T18:21:47.400Z,10.67
2018-07-20T18:24:16.322Z,9.47
2018-07-20T18:26:45.388Z,9.43
2018-07-20T18:29:14.685Z,9.67
2018-07-20T18:31:43.687Z,10.13
2018-07-20T18:34:12.632Z,9.40
2018-07-20T18:36:41.673Z,11.43
2018-07-20T18:39:11.930Z,9.40
2018-07-20T18:41:41.612Z,8.97
2018-07-20T18:44:10.943Z,10.60
2018-07-20T18:46:39.881Z,8.60
2018-07-20T18:49:09.086Z,9.37
2018-07-20T18:51:38.043Z,10.00
2018-07-20T18:54:13.821Z,9.40
2018-07-20T18:56:42.687Z,9.37
2018-07-20T18:59:11.605Z,8.93
2018-07-20T19:01:41.357Z,10.87
2018-07-20T19:04:11.360Z,8.90
2018-07-20T19:06:40.421Z,9.90
2018-07-20T19:09:11.050Z,8.70
2018-07-20T19:11:40.276Z,9.23
2018-07-20T19:14:09.280Z,9.37
2018-07-20T19:16:38.269Z,8.97
2018-07-20T19:19:07.954Z,9.70
2018-07-20T19:21:37.072Z,9.20
2018-07-20T19:24:06.669Z,9.60
2018-07-20T19:26:35.633Z,9.27
2018-07-20T19:29:04.684Z,10.67
2018-07-20T19:31:33.625Z,11.17
2018-07-20T19:34:02.770Z,13.47
2018-07-20T19:36:31.664Z,10.63
2018-07-20T19:39:00.507Z,11.23
2018-07-20T19:41:29.394Z,11.50
2018-07-20T19:43:58.513Z,11.10
2018-07-20T19:46:27.652Z,12.67
2018-07-20T19:48:56.514Z,10.57
2018-07-20T19:51:25.711Z,11.40
2018-07-20T19:53:54.558Z,11.63
2018-07-20T19:56:23.506Z,10.47
2018-07-20T19:58:52.546Z,10.30
2018-07-20T20:01:27.796Z,10.17
2018-07-20T20:03:56.764Z,10.53
2018-07-20T20:06:25.665Z,12.20
2018-07-20T20:08:54.498Z,11.50
2018-07-20T20:11:23.459Z,10.33
2018-07-20T20:13:52.599Z,10.47
2018-07-20T20:16:21.498Z,11.67
2018-07-20T20:18:50.423Z,12.63
2018-07-20T20:21:19.428Z,11.93
2018-07-20T20:23:48.508Z,11.87
2018-07-20T20:26:17.399Z,11.50
2018-07-20T20:28:46.277Z,11.83
2018-07-20T20:31:15.424Z,13.50
2018-07-20T20:33:44.279Z,12.33
2018-07-20T20:36:13.168Z,11.80
2018-07-20T20:38:42.038Z,11.87
2018-07-20T20:41:10.977Z,12.87
2018-07-20T20:43:39.898Z,12.13
2018-07-20T20:46:08.965Z,11.33
2018-07-20T20:48:37.892Z,11.97
2018-07-20T20:51:06.777Z,12.60
2018-07-20T20:53:35.655Z,12.20
2018-07-20T20:56:04.816Z,14.00
2018-07-20T20:58:33.795Z,15.17
2018-07-20T21:01:03.160Z,11.13
2018-07-20T21:03:32.074Z,14.17
2018-07-20T21:06:00.986Z,12.03
2018-07-20T21:08:29.986Z,12.80
2018-07-20T21:10:58.844Z,12.53
2018-07-20T21:13:28.002Z,13.73
2018-07-20T21:15:56.908Z,12.80
2018-07-20T21:18:25.803Z,13.10
2018-07-20T21:20:54.687Z,12.33
2018-07-20T21:23:23.725Z,12.77
2018-07-20T21:25:53.064Z,12.20
2018-07-20T21:28:21.544Z,12.97
2018-07-20T21:30:50.470Z,12.60
2018-07-20T21:33:19.338Z,14.23
2018-07-20T21:35:48.238Z,12.63
2018-07-20T21:38:17.230Z,11.90
2018-07-20T21:40:46.120Z,11.93
2018-07-20T21:43:14.970Z,13.13
2018-07-20T21:45:43.868Z,12.03
2018-07-20T21:48:12.819Z,12.17
2018-07-20T21:50:42.024Z,12.93
2018-07-20T21:53:10.999Z,13.20
2018-07-20T21:55:39.974Z,12.47
2018-07-20T21:58:08.911Z,12.47
2018-07-20T22:00:37.886Z,12.73
2018-07-20T22:03:07.006Z,11.53
2018-07-20T22:05:36.253Z,12.73
2018-07-20T22:08:05.351Z,11.30
2018-07-20T22:10:34.211Z,12.30
2018-07-20T22:13:03.098Z,12.00
2018-07-20T22:15:31.954Z,13.27
2018-07-20T22:18:00.876Z,10.73
2018-07-20T22:20:29.800Z,12.27
2018-07-20T22:22:58.671Z,10.40
2018-07-20T22:25:27.623Z,11.37
2018-07-20T22:27:56.505Z,11.37
2018-07-20T22:30:25.518Z,12.63
2018-07-20T22:32:54.395Z,10.40
2018-07-20T22:35:23.245Z,11.80
2018-07-20T22:37:52.200Z,10.57
2018-07-20T22:40:21.190Z,11.47
2018-07-20T22:42:50.118Z,9.97
2018-07-20T22:45:19.019Z,11.33
2018-07-20T22:47:48.068Z,9.50
2018-07-20T22:50:16.942Z,9.40
2018-07-20T22:52:45.831Z,12.57
2018-07-20T22:55:14.679Z,9.23
2018-07-20T22:57:43.696Z,10.00
2018-07-20T23:00:12.726Z,9.27
2018-07-20T23:02:41.523Z,10.53
2018-07-20T23:05:10.383Z,8.60
2018-07-20T23:07:39.230Z,9.80
2018-07-20T23:10:08.083Z,8.67
2018-07-20T23:12:37.127Z,10.13
2018-07-20T23:15:06.437Z,8.73
2018-07-20T23:17:36.548Z,8.37
2018-07-20T23:20:05.658Z,8.37
2018-07-20T23:22:34.774Z,8.23
2018-07-20T23:25:03.655Z,11.43
2018-07-20T23:27:32.524Z,9.93
2018-07-20T23:30:01.419Z,7.80
2018-07-20T23:32:30.733Z,7.83
2018-07-20T23:35:00.236Z,7.90
2018-07-20T23:37:29.872Z,8.20
2018-07-20T23:39:59.028Z,9.03
2018-07-20T23:42:28.355Z,8.40
2018-07-20T23:44:57.645Z,8.83
2018-07-20T23:47:27.317Z,8.50
2018-07-20T23:49:56.470Z,7.63
2018-07-20T23:52:25.815Z,7.70
2018-07-20T23:54:55.347Z,9.67
2018-07-20T23:57:24.591Z,8.20
2018-07-20T23:59:54.154Z,7.93
